Nearby METAR Reports

 

KIMT - Iron Mountain, Michigan, USA
Distance from station: 0 29mi, 47km
Updated: Fri, 23-Jun-2017 2:54am CDT
Few Clouds
Few Clouds
 Wind from NW
Wind: NW 3 mph , 6 km/h
Temperature: 59°F , 15°C
Dew Point: 55°F , 13°C
Humidity: 88%
Barometer: 29.65 inHg , 1004.1 hPa
Clouds: Few Clouds
Visibility: 10 miles , 16 km
Cloud details: Few Clouds 11000 ft
2017/06/23 07:54 KIMT 230754Z AUTO 31003KT 10SM FEW110 15/13 A2965 RMK AO2 SLP038 T01500133
KMNM - Menominee, Michigan, USA
Distance from station: SE 31mi, 51km
Updated: Fri, 23-Jun-2017 2:56am CDT
Partly cloudy
Partly cloudy
 Wind from calm
Wind: Calm
Temperature: 64°F , 18°C
Dew Point: 64°F , 18°C
Humidity: 100%
Barometer: 29.65 inHg , 1004.1 hPa
Clouds: Partly cloudy
Visibility: 10 miles , 16 km
Cloud details: Partly cloudy 12000 ft
2017/06/23 07:56 KMNM 230756Z AUTO 00000KT 10SM SCT120 18/18 A2965 RMK AO2 RAE10 SLP054 P0000 T01830178 $
 
KOCQ - Oconto, Wisconsin, USA
Distance from station: SSE 38mi, 61km
Updated: Fri, 23-Jun-2017 3:35am CDT
Mostly cloudy
Mostly cloudy
 Wind from WNW
Wind: WNW 3 mph , 6 km/h
Temperature: 64°F , 18°C
Dew Point: 64°F , 18°C
Humidity: 100%
Barometer: 29.64 inHg , 1003.7 hPa
Clouds: Mostly cloudy
Visibility: 10 miles , 16 km
Cloud details: Mostly cloudy 12000 ft
2017/06/23 08:35 KOCQ 230835Z AUTO 30003KT 10SM BKN120 18/18 A2964 RMK AO1 T01800175
KEZS - Shawano Muni, Wisconsin, USA
Distance from station: SSW 48mi, 77km
Updated: Fri, 23-Jun-2017 3:35am CDT
Mostly cloudy
Mostly cloudy
 Wind from W
Wind: W 3 mph , 6 km/h
Temperature: 64°F , 18°C
Dew Point: 63°F , 17°C
Humidity: 94%
Barometer: 29.66 inHg , 1004.4 hPa
Clouds: Mostly cloudy
Visibility: 10 miles , 16 km
Cloud details: Mostly cloudy 11000 ft
2017/06/23 08:35 KEZS 230835Z AUTO 27003KT 10SM BKN110 18/17 A2966 RMK AO2 LTG DSNT SE T01820171
 
KAIG - Antigo/Langlade, Wisconsin, USA
Distance from station: WSW 51mi, 82km
Updated: Fri, 23-Jun-2017 3:35am CDT
Clear
Clear
 Wind from calm
Wind: Calm
Temperature: 57°F , 14°C
Dew Point: 57°F , 14°C
Humidity: 100%
Barometer: 29.69 inHg , 1005.4 hPa
Clouds: Clear
Visibility: 10 miles , 16 km
2017/06/23 08:35 KAIG 230835Z AUTO 00000KT 10SM CLR 14/14 A2969 RMK AO2 T01410141
KSUE - Sturgeon Bay, Wisconsin, USA
Distance from station: SE 51mi, 82km
Updated: Fri, 23-Jun-2017 2:56am CDT
Light rain
Light rain
 Wind from WNW
Wind: WNW 5 mph , 7 km/h
Temperature: 66°F , 19°C
Dew Point: 66°F , 19°C
Humidity: 100%
Summary: Light rain
Visibility: 7 miles , 11 km
2017/06/23 07:56 KSUE 230756Z AUTO 29004KT 7SM -RA 19/19 RMK AO2 RAB46 SLPNO T01890189 PNO $
 
KESC - Escanaba, Michigan, USA
Distance from station: ENE 56mi, 90km
Updated: Fri, 23-Jun-2017 2:56am CDT
Clear
Clear
 Wind from W
Wind: W 5 mph , 7 km/h
Temperature: 63°F , 17°C
Dew Point: 61°F , 16°C
Humidity: 94%
Barometer: 29.63 inHg , 1003.4 hPa
Clouds: Clear
Visibility: 10 miles , 16 km
2017/06/23 07:56 KESC 230756Z AUTO 26004KT 10SM CLR 17/16 A2963 RMK AO2 SLP052 T01670161
KCLI - Clintonville, Wisconsin, USA
Distance from station: SSW 62mi, 99km
Updated: Fri, 23-Jun-2017 3:35am CDT
Mostly cloudy
Mostly cloudy
 Wind from W
Wind: W 5 mph , 7 km/h
Temperature: 63°F , 17°C
Dew Point: 63°F , 17°C
Humidity: 100%
Barometer: 29.67 inHg , 1004.7 hPa
Clouds: Mostly cloudy
Visibility: 10 miles , 16 km
Cloud details: Mostly cloudy 11000 ft
2017/06/23 08:35 KCLI 230835Z AUTO 28004KT 10SM BKN110 17/17 A2967 RMK AO2
 
KGRB - Ashwaubenon, Wisconsin, USA
Distance from station: S 63mi, 102km
Updated: Fri, 23-Jun-2017 2:53am CDT
Partly cloudy
Partly cloudy
 Wind from W
Wind: W 5 mph , 7 km/h
Temperature: 66°F , 19°C
Dew Point: 66°F , 19°C
Humidity: 100%
Barometer: 29.65 inHg , 1004.1 hPa
Clouds: Partly cloudy
Visibility: 9 miles , 14 km
Cloud details: Partly cloudy 11000 ft
2017/06/23 07:53 KGRB 230753Z AUTO 26004KT 9SM SCT110 19/19 A2965 RMK AO2 RAB13E34 SLP037 P0000 T01890189
KEGV - Eagle River, Wisconsin, USA
Distance from station: NW 66mi, 107km
Updated: Fri, 23-Jun-2017 3:35am CDT
Fog, Overcast
Fog, Overcast
 Wind from calm
Wind: Calm
Temperature: 52°F , 11°C
Dew Point: 52°F , 11°C
Humidity: 100%
Barometer: 29.67 inHg , 1004.7 hPa
Summary: Fog
Clouds: Overcast
Visibility: 1/4 mile , 2 km
Cloud details: Overcast 200 ft
2017/06/23 08:35 KEGV 230835Z AUTO 00000KT 1/4SM FG OVC002 11/11 A2967 RMK AO2 T01050105
 
KRHI - Rhinelander, Wisconsin, USA
Distance from station: WNW 68mi, 109km
Updated: Fri, 23-Jun-2017 3:35am CDT
Fog, Partly cloudy
Fog, Partly cloudy
 Wind from W
Wind: W 5 mph , 7 km/h
Temperature: 50°F , 10°C
Wind Chill: 48°F , 9°C
Dew Point: 50°F , 10°C
Humidity: 100%
Barometer: 29.69 inHg , 1005.4 hPa
Summary: Fog
Clouds: Partly cloudy
Visibility: 1/2 mile , 2 km
Cloud details: Few Clouds 200 ft
Partly cloudy 12000 ft
2017/06/23 08:35 KRHI 230835Z AUTO 27004KT 1/2SM FG FEW002 SCT120 10/10 A2969 RMK AO2 T01000100
KLNL - Land O Lakes, Wisconsin, USA
Distance from station: NW 74mi, 119km
Updated: Fri, 23-Jun-2017 3:35am CDT
Fog, Mostly cloudy
Fog, Mostly cloudy
 Wind from calm
Wind: Calm
Temperature: 52°F , 11°C
Dew Point: 52°F , 11°C
Humidity: 100%
Barometer: 29.68 inHg , 1005.1 hPa
Summary: Fog
Clouds: Mostly cloudy
Visibility: 1/4 mile , 2 km
Cloud details: Mostly cloudy 12000 ft
2017/06/23 08:35 KLNL 230835Z AUTO 00000KT 1/4SM FG BKN120 11/11 A2968 RMK AO2 VIS M1/4V4 T01090106
 
KSAW - Gwinn/Sawyer, Michigan, USA
Distance from station: NNE 74mi, 120km
Updated: Fri, 23-Jun-2017 3:36am CDT
Mostly cloudy
Mostly cloudy
 Wind from calm
Wind: Calm
Temperature: 59°F , 15°C
Dew Point: 55°F , 13°C
Humidity: 88%
Barometer: 29.63 inHg , 1003.4 hPa
Clouds: Mostly cloudy
Visibility: 10 miles , 16 km
Cloud details: Mostly cloudy 12000 ft
2017/06/23 08:36 KSAW 230836Z AUTO 00000KT 10SM BKN120 15/13 A2963 RMK AO2 T01450128